sensor_id;sensor_type;location;lat;lon;timestamp;pressure;altitude;pressure_sealevel;temperature;humidity
50790;BME280;37287;47.554;7.844;2022-08-11T17:33:29;97676.72;;;28.30;30.94
50790;BME280;37287;47.554;7.844;2022-08-11T17:36:14;97684.56;;;28.21;30.41
50790;BME280;37287;47.554;7.844;2022-08-11T17:38:42;97678.22;;;28.20;30.70
50790;BME280;37287;47.554;7.844;2022-08-11T17:41:11;97678.69;;;28.13;30.77
50790;BME280;37287;47.554;7.844;2022-08-11T17:44:02;97684.50;;;28.04;31.21
50790;BME280;37287;47.554;7.844;2022-08-11T17:46:48;97684.72;;;28.00;31.19
50790;BME280;37287;47.554;7.844;2022-08-11T17:49:35;97682.69;;;28.01;30.91
50790;BME280;37287;47.554;7.844;2022-08-11T17:52:05;97682.69;;;28.01;30.88
50790;BME280;37287;47.554;7.844;2022-08-11T17:54:52;97681.63;;;27.92;31.02
50790;BME280;37287;47.554;7.844;2022-08-11T17:57:39;97687.91;;;27.82;31.30
50790;BME280;37287;47.554;7.844;2022-08-11T18:00:29;97693.66;;;27.72;31.61
50790;BME280;37287;47.554;7.844;2022-08-11T18:02:58;97697.91;;;27.62;31.64
50790;BME280;37287;47.554;7.844;2022-08-11T18:05:47;97704.41;;;27.53;31.87
50790;BME280;37287;47.554;7.844;2022-08-11T18:08:15;97697.25;;;27.41;32.18
50790;BME280;37287;47.554;7.844;2022-08-11T18:11:03;97702.69;;;27.29;32.15
50790;BME280;37287;47.554;7.844;2022-08-11T18:14:09;97698.31;;;27.17;32.31
50790;BME280;37287;47.554;7.844;2022-08-11T18:16:56;97706.84;;;27.08;32.31
50790;BME280;37287;47.554;7.844;2022-08-11T18:19:41;97707.50;;;26.97;32.44
50790;BME280;37287;47.554;7.844;2022-08-11T18:22:29;97714.47;;;26.87;32.57
50790;BME280;37287;47.554;7.844;2022-08-11T18:25:20;97717.34;;;26.72;33.06
50790;BME280;37287;47.554;7.844;2022-08-11T18:28:12;97713.69;;;26.60;33.72
50790;BME280;37287;47.554;7.844;2022-08-11T18:31:00;97713.56;;;26.49;33.19
50790;BME280;37287;47.554;7.844;2022-08-11T18:33:52;97712.44;;;26.40;33.58
50790;BME280;37287;47.554;7.844;2022-08-11T18:39:33;97722.59;;;26.23;33.86
50790;BME280;37287;47.554;7.844;2022-08-11T18:42:22;97725.25;;;26.12;33.65
50790;BME280;37287;47.554;7.844;2022-08-11T18:45:10;97727.38;;;26.02;33.98
50790;BME280;37287;47.554;7.844;2022-08-11T18:48:09;97728.72;;;25.91;34.63
50790;BME280;37287;47.554;7.844;2022-08-11T18:51:01;97732.47;;;25.88;34.15
50790;BME280;37287;47.554;7.844;2022-08-11T18:54:06;97731.06;;;25.78;35.36
50790;BME280;37287;47.554;7.844;2022-08-11T18:56:55;97737.00;;;25.71;34.76
50790;BME280;37287;47.554;7.844;2022-08-11T18:59:42;97738.16;;;25.64;34.98
50790;BME280;37287;47.554;7.844;2022-08-11T19:02:29;97742.31;;;25.54;35.21
50790;BME280;37287;47.554;7.844;2022-08-11T19:05:19;97742.63;;;25.41;35.53
50790;BME280;37287;47.554;7.844;2022-08-11T19:08:28;97745.84;;;25.24;36.00
50790;BME280;37287;47.554;7.844;2022-08-11T19:11:14;97746.41;;;25.14;35.84
50790;BME280;37287;47.554;7.844;2022-08-11T19:14:08;97748.63;;;25.10;35.75
50790;BME280;37287;47.554;7.844;2022-08-11T19:16:55;97754.41;;;24.97;36.29
50790;BME280;37287;47.554;7.844;2022-08-11T19:20:06;97752.03;;;24.89;36.35
50790;BME280;37287;47.554;7.844;2022-08-11T19:22:54;97760.44;;;24.80;36.22
50790;BME280;37287;47.554;7.844;2022-08-11T19:25:42;97757.47;;;24.69;36.55
50790;BME280;37287;47.554;7.844;2022-08-11T19:28:27;97762.59;;;24.61;37.09
50790;BME280;37287;47.554;7.844;2022-08-11T19:31:13;97759.09;;;24.51;37.29
50790;BME280;37287;47.554;7.844;2022-08-11T19:33:59;97762.81;;;24.48;37.77
50790;BME280;37287;47.554;7.844;2022-08-11T19:36:45;97766.53;;;24.45;37.00
50790;BME280;37287;47.554;7.844;2022-08-11T19:39:32;97773.38;;;24.35;37.24
50790;BME280;37287;47.554;7.844;2022-08-11T19:42:19;97769.91;;;24.25;37.49
50790;BME280;37287;47.554;7.844;2022-08-11T19:45:05;97769.31;;;24.21;38.08
50790;BME280;37287;47.554;7.844;2022-08-11T19:47:51;97773.19;;;24.14;38.25
50790;BME280;37287;47.554;7.844;2022-08-11T19:50:56;97773.81;;;24.09;38.35
50790;BME280;37287;47.554;7.844;2022-08-11T19:53:44;97769.34;;;24.12;38.29
50790;BME280;37287;47.554;7.844;2022-08-11T19:56:30;97769.22;;;24.06;38.43
50790;BME280;37287;47.554;7.844;2022-08-11T19:59:18;97763.88;;;24.02;38.94
50790;BME280;37287;47.554;7.844;2022-08-11T20:02:04;97773.75;;;23.94;39.02
50790;BME280;37287;47.554;7.844;2022-08-11T20:04:50;97780.38;;;23.88;39.29
50790;BME280;37287;47.554;7.844;2022-08-11T20:07:35;97783.16;;;23.88;38.87
50790;BME280;37287;47.554;7.844;2022-08-11T20:10:22;97779.75;;;23.83;38.74
50790;BME280;37287;47.554;7.844;2022-08-11T20:13:10;97785.94;;;23.78;39.23
50790;BME280;37287;47.554;7.844;2022-08-11T20:15:56;97786.84;;;23.75;39.84
50790;BME280;37287;47.554;7.844;2022-08-11T20:18:45;97786.56;;;23.73;39.77
50790;BME280;37287;47.554;7.844;2022-08-11T20:21:31;97789.81;;;23.72;39.03
50790;BME280;37287;47.554;7.844;2022-08-11T20:24:17;97785.25;;;23.59;39.17
50790;BME280;37287;47.554;7.844;2022-08-11T20:27:04;97784.97;;;23.48;39.71
50790;BME280;37287;47.554;7.844;2022-08-11T20:29:52;97786.38;;;23.43;39.59
50790;BME280;37287;47.554;7.844;2022-08-11T20:32:39;97792.84;;;23.31;40.58
50790;BME280;37287;47.554;7.844;2022-08-11T20:35:25;97798.09;;;23.20;40.64
50790;BME280;37287;47.554;7.844;2022-08-11T20:38:12;97804.69;;;23.13;41.08
50790;BME280;37287;47.554;7.844;2022-08-11T20:40:59;97803.75;;;23.07;40.92
50790;BME280;37287;47.554;7.844;2022-08-11T20:43:46;97807.28;;;22.98;41.00
50790;BME280;37287;47.554;7.844;2022-08-11T20:46:38;97814.63;;;22.92;41.31
50790;BME280;37287;47.554;7.844;2022-08-11T20:49:26;97807.59;;;22.81;41.41
50790;BME280;37287;47.554;7.844;2022-08-11T20:52:35;97810.22;;;22.66;41.69
50790;BME280;37287;47.554;7.844;2022-08-11T20:55:22;97812.97;;;22.57;42.22
50790;BME280;37287;47.554;7.844;2022-08-11T20:58:18;97808.19;;;22.48;42.33
50790;BME280;37287;47.554;7.844;2022-08-11T21:01:25;97805.72;;;22.50;42.30
50790;BME280;37287;47.554;7.844;2022-08-11T21:04:11;97815.09;;;22.53;42.17
50790;BME280;37287;47.554;7.844;2022-08-11T21:07:00;97808.50;;;22.50;42.06
50790;BME280;37287;47.554;7.844;2022-08-11T21:09:54;97808.78;;;22.43;42.50
50790;BME280;37287;47.554;7.844;2022-08-11T21:12:50;97806.34;;;22.36;42.51
50790;BME280;37287;47.554;7.844;2022-08-11T21:16:00;97812.41;;;22.31;43.31
50790;BME280;37287;47.554;7.844;2022-08-11T21:19:13;97807.25;;;22.33;44.16
50790;BME280;37287;47.554;7.844;2022-08-11T21:22:25;97811.34;;;22.28;45.00
50790;BME280;37287;47.554;7.844;2022-08-11T21:25:26;97813.03;;;22.26;42.52
50790;BME280;37287;47.554;7.844;2022-08-11T21:28:12;97816.72;;;22.23;43.24
50790;BME280;37287;47.554;7.844;2022-08-11T21:31:02;97822.34;;;22.19;42.56
50790;BME280;37287;47.554;7.844;2022-08-11T21:33:48;97818.97;;;22.15;42.60
50790;BME280;37287;47.554;7.844;2022-08-11T21:36:35;97816.50;;;22.08;43.22
50790;BME280;37287;47.554;7.844;2022-08-11T21:39:21;97822.78;;;22.08;42.98
